Řízení letového provozu České republiky  
Aktualizace dat:  24.03.2019 21:49:06 UTC English version
   METEO Zobrazení stránky:  24.03.2019 21:49:56 UTC  
vysvětlivky
METAR EDDB 242120Z 27006KT CAVOK 03/M01 Q1019 NOSIG=
METAR EDDC 242120Z 25004KT 220V290 9999 FEW029 BKN048 06/04 Q1019=
METAR EDDE 242120Z 30007KT 9999 BKN035 05/02 Q1021=
METAR EDDF 242120Z 26007KT CAVOK 08/M01 Q1023 NOSIG=
METAR EDDM 242120Z 28006KT 7000 NSC 10/05 Q1021 NOSIG=
METAR EDDN 242120Z 32003KT 9999 FEW027 08/05 Q1021=
METAR EDDP 242120Z 27005KT 9999 FEW036 BKN046 05/M01 Q1020 NOSIG=
METAR EDDT 242120Z 29002KT CAVOK 03/M01 Q1019 NOSIG=
METAR EDQM NIL
METAR EPBY 242130Z 23003KT CAVOK 02/M01 Q1017=
METAR EPGD 242130Z 26008KT CAVOK 02/M01 Q1015=
METAR EPKK 242130Z 34010KT 9999 -RA FEW017 BKN048 08/01 Q1017=
METAR EPKT 242130Z 33003KT 290V010 9999 BKN043 05/03 Q1017=
METAR EPLL 242130Z VRB01KT CAVOK 06/M03 Q1017=
METAR EPPO 242130Z 26002KT CAVOK 03/M02 Q1018=
METAR EPRZ 242130Z VRB01KT CAVOK 04/M00 Q1016=
METAR EPWA 242130Z VRB02KT CAVOK 06/M02 Q1017 NOSIG=
METAR EPWR 242130Z 28006KT CAVOK 07/03 Q1018=
METAR LHBP 242130Z VRB01KT CAVOK 08/07 Q1015 NOSIG=
METAR LHSM NIL
METAR LKBC 242130Z AUTO 00000KT 3600 BR SCT048 BKN055 05/04 Q1018=
METAR LKCV 242100Z 28004KT 9999 BKN032 OVC060 08/05 Q1019 NOSIG RMK BLU BLU=
METAR LKKB 242100Z 30004KT 9999 OVC032 08/03 Q1019 NOSIG RMK BLU BLU=
METAR LKKU NIL
METAR LKKV 242100Z 28003KT 8000 OVC017 05/04 Q1019 RMK REG QNH 1015=
METAR LKLN 242130Z AUTO VRB01KT 8000 BKN024 OVC032 08/05 Q1020=
METAR LKMT 242130Z 02004KT 9999 BKN040 08/04 Q1018 NOSIG RMK REG QNH 1015=
METAR LKNA 242100Z 33006KT CAVOK 06/04 Q1018 RMK BLU=
METAR LKPD 242100Z 28003KT 9999 BKN040 BKN060 09/05 Q1019 RMK BLACK=
METAR LKPJ 242100Z AUTO 34004KT 270V010 9999 FEW022/// SCT028/// BKN039/// 09/04 Q1018=
METAR LKPR 242130Z 31005KT 9999 OVC032 07/03 Q1019 NOSIG RMK REG QNH 1015=
METAR LKTB 242130Z 01005KT CAVOK 09/05 Q1018 NOSIG RMK REG QNH 1015=
METAR LKVO NIL
METAR LOWI 242120Z VRB02KT 9999 FEW090 09/01 Q1020 NOSIG=
METAR LOWL 242120Z AUTO VRB02KT 8000 BKN050 10/06 Q1019 NOSIG=
METAR LOWS 242120Z 29006KT 250V320 9999 SCT050 BKN100 10/05 Q1021 NOSIG=
METAR LOWW 242120Z 33010KT 9999 SCT050 12/07 Q1018 NOSIG=
METAR LZIB 242130Z 31012KT CAVOK 13/05 Q1017=
METAR LZKZ 242130Z 03007KT CAVOK 10/03 Q1015=
METAR LZMC 242100Z 34006KT 9999 SCT036 BKN046 BKN090 11/03 Q1018=
METAR LZPP 242130Z AUTO 36003KT 9999 SCT049/// OVC066/// 10/04 Q1017=
METAR LZSL 242130Z 00000KT 9999 FEW058 08/05 Q1015=
METAR LZTT 242130Z 30003KT 8000 FEW022 SCT030 02/01 Q1015=
METAR LZZI 242130Z VRB02KT 9999 BKN042 OVC057 08/03 Q1017=